Time;durP1;ratioP1;P1;durP2;ratioP2;P2;SDS_P1;SDS_P2;PMS_P1;PMS_P2;Temp;Humidity;BMP_temperature;BMP_pressure;BME280_temperature;BME280_humidity;BME280_pressure;Samples;Min_cycle;Max_cycle;Signal;HPM_P1;HPM_P2
2023/06/24 00:02:04;;;;;;;3.90;2.30;;;24.10;94.90;;;;;;5068114;28;21724;-62
2023/06/24 00:04:50;;;;;;;2.30;2.10;;;24.10;94.90;;;;;;5093324;28;20216;-63
2023/06/24 00:07:43;;;;;;;2.05;1.85;;;24.10;94.90;;;;;;5066201;28;20170;-62
2023/06/24 00:10:29;;;;;;;1.70;1.60;;;24.10;94.90;;;;;;5068363;28;20181;-63
2023/06/24 00:13:17;;;;;;;2.63;2.13;;;24.10;94.90;;;;;;5065510;28;20186;-63
2023/06/24 00:16:02;;;;;;;1.85;1.77;;;24.10;95.00;;;;;;5068020;28;20186;-63
2023/06/24 00:18:46;;;;;;;2.50;2.30;;;24.10;95.00;;;;;;5072587;28;20249;-63
2023/06/24 00:21:31;;;;;;;1.75;1.67;;;24.10;95.00;;;;;;5064970;28;20181;-63
2023/06/24 00:24:17;;;;;;;2.22;2.03;;;24.10;95.00;;;;;;5066138;28;20186;-62
2023/06/24 00:27:01;;;;;;;2.05;1.95;;;24.10;95.00;;;;;;5067604;28;20198;-63
2023/06/24 00:29:46;;;;;;;2.75;1.90;;;24.10;95.00;;;;;;5063273;28;20178;-63
2023/06/24 00:32:31;;;;;;;2.20;1.92;;;24.10;95.00;;;;;;5064691;28;20201;-64
2023/06/24 00:35:17;;;;;;;3.85;2.08;;;24.10;95.00;;;;;;5066038;28;20243;-63
2023/06/24 00:38:02;;;;;;;2.67;2.25;;;24.10;95.00;;;;;;5053240;28;20238;-63
2023/06/24 00:40:46;;;;;;;3.58;2.03;;;24.10;95.10;;;;;;5040474;28;20227;-63
2023/06/24 00:43:31;;;;;;;2.17;1.90;;;24.10;95.10;;;;;;5042630;28;20229;-63
2023/06/24 00:46:15;;;;;;;2.47;2.17;;;24.10;95.10;;;;;;5043617;28;20185;-62
2023/06/24 00:49:02;;;;;;;1.95;1.73;;;24.10;95.10;;;;;;5043773;28;20218;-63
2023/06/24 00:51:50;;;;;;;2.33;2.13;;;24.10;95.10;;;;;;5040666;28;20183;-63
2023/06/24 00:54:34;;;;;;;2.10;2.00;;;24.10;95.10;;;;;;5042642;28;20206;-63
2023/06/24 00:57:25;;;;;;;1.70;1.60;;;24.10;95.10;;;;;;5043860;28;20211;-63
2023/06/24 01:00:14;;;;;;;3.10;2.17;;;24.10;95.20;;;;;;5040669;28;20183;-62
2023/06/24 01:02:59;;;;;;;2.10;2.00;;;24.10;95.20;;;;;;5043523;28;20206;-63
2023/06/24 01:05:46;;;;;;;2.10;1.98;;;24.10;95.20;;;;;;5044410;28;20225;-64
2023/06/24 01:08:31;;;;;;;3.28;2.17;;;24.10;95.20;;;;;;5041609;28;20186;-63
2023/06/24 01:11:16;;;;;;;2.60;2.38;;;24.10;95.20;;;;;;5048340;28;20182;-62
2023/06/24 01:14:01;;;;;;;3.75;2.10;;;24.10;95.30;;;;;;5055308;28;20198;-63
2023/06/24 01:17:19;;;;;;;2.45;2.00;;;24.10;95.30;;;;;;5054831;28;20173;-62
2023/06/24 01:20:09;;;;;;;3.13;2.30;;;24.10;95.30;;;;;;5054802;28;20221;-62
2023/06/24 01:23:15;;;;;;;5.05;2.17;;;24.10;95.30;;;;;;5054434;28;20175;-62
2023/06/24 01:26:21;;;;;;;2.13;2.03;;;24.10;95.30;;;;;;5055350;28;20194;-63
2023/06/24 01:29:57;;;;;;;2.40;2.20;;;24.10;95.40;;;;;;5054533;28;20174;-62
2023/06/24 01:33:09;;;;;;;4.78;2.33;;;24.10;95.40;;;;;;5042789;28;20254;-62
2023/06/24 01:35:55;;;;;;;2.67;2.38;;;24.10;95.40;;;;;;5054405;28;20170;-62
2023/06/24 01:38:47;;;;;;;2.10;1.92;;;24.10;95.40;;;;;;5053811;28;20245;-62
2023/06/24 01:41:35;;;;;;;2.25;2.10;;;24.10;95.40;;;;;;5054284;28;20261;-62
2023/06/24 01:44:21;;;;;;;2.55;2.35;;;24.10;95.40;;;;;;5053581;28;20186;-62
2023/06/24 01:47:08;;;;;;;2.17;2.08;;;24.10;95.40;;;;;;5053504;28;20170;-62
2023/06/24 01:49:57;;;;;;;2.13;2.03;;;24.10;95.40;;;;;;5054346;28;20179;-62
2023/06/24 01:52:44;;;;;;;2.60;2.40;;;24.10;95.40;;;;;;5053764;28;20210;-62
2023/06/24 01:55:29;;;;;;;2.35;2.15;;;24.10;95.40;;;;;;5053581;28;20178;-62
2023/06/24 01:58:16;;;;;;;2.72;2.35;;;24.10;95.40;;;;;;5053513;28;20238;-62
2023/06/24 02:01:02;;;;;;;2.78;2.50;;;24.10;95.40;;;;;;5053501;28;20256;-62
2023/06/24 02:03:49;;;;;;;2.70;2.50;;;24.10;95.40;;;;;;5053646;28;20170;-62
2023/06/24 02:06:36;;;;;;;2.10;1.90;;;24.00;95.40;;;;;;5054576;28;20208;-63
2023/06/24 02:09:21;;;;;;;2.00;1.90;;;24.10;95.50;;;;;;5053839;28;20182;-62
2023/06/24 02:12:09;;;;;;;3.10;2.22;;;24.00;95.40;;;;;;5054509;28;20246;-63
2023/06/24 02:14:56;;;;;;;3.33;2.15;;;24.00;95.40;;;;;;5053770;28;20221;-62
2023/06/24 02:17:41;;;;;;;2.80;2.45;;;24.00;95.40;;;;;;5053758;28;20210;-63
2023/06/24 02:20:26;;;;;;;1.95;1.85;;;24.00;95.40;;;;;;5053030;28;20197;-62
2023/06/24 02:23:12;;;;;;;3.00;2.35;;;24.00;95.40;;;;;;5053295;28;20182;-62
2023/06/24 02:25:57;;;;;;;2.33;2.22;;;24.00;95.40;;;;;;5038017;28;20211;-62
2023/06/24 02:28:45;;;;;;;3.47;2.40;;;24.00;95.40;;;;;;5033042;28;20218;-62
2023/06/24 02:31:29;;;;;;;2.55;2.35;;;24.00;95.50;;;;;;5033205;28;20176;-62
2023/06/24 02:34:15;;;;;;;2.70;2.50;;;24.00;95.50;;;;;;5033455;28;20211;-62
2023/06/24 02:37:00;;;;;;;2.13;2.03;;;24.00;95.50;;;;;;5034331;28;20170;-63
2023/06/24 02:39:45;;;;;;;3.55;2.90;;;24.00;95.50;;;;;;5087730;28;20197;-62
2023/06/24 02:42:30;;;;;;;2.95;2.45;;;24.00;95.50;;;;;;5087812;28;20229;-62
2023/06/24 02:45:15;;;;;;;2.72;2.47;;;24.00;95.50;;;;;;5074183;28;20177;-62
2023/06/24 02:48:00;;;;;;;3.88;2.50;;;24.00;95.50;;;;;;5087504;28;20173;-62
2023/06/24 02:50:46;;;;;;;4.28;2.58;;;24.00;95.50;;;;;;5087881;28;20205;-62
2023/06/24 02:53:31;;;;;;;2.63;2.42;;;24.00;95.50;;;;;;5059093;28;20173;-62
2023/06/24 02:56:20;;;;;;;3.42;2.55;;;24.00;95.80;;;;;;5087955;28;20177;-62
2023/06/24 02:59:05;;;;;;;4.28;2.55;;;24.00;95.50;;;;;;5087529;28;20239;-63
2023/06/24 03:01:50;;;;;;;4.93;2.90;;;24.00;95.50;;;;;;5087417;28;20185;-63
2023/06/24 03:04:35;;;;;;;2.60;2.40;;;24.00;95.50;;;;;;5074069;28;20268;-62
2023/06/24 03:07:20;;;;;;;2.53;2.35;;;24.00;95.50;;;;;;5074279;28;20216;-62
2023/06/24 03:10:06;;;;;;;3.03;2.70;;;24.00;95.60;;;;;;5087311;28;20174;-62
2023/06/24 03:12:51;;;;;;;3.55;2.83;;;24.00;95.50;;;;;;5087633;28;20212;-62
2023/06/24 03:15:35;;;;;;;3.38;2.65;;;23.90;95.50;;;;;;5087518;28;20174;-62
2023/06/24 03:18:20;;;;;;;4.95;3.13;;;24.00;95.50;;;;;;5086853;28;20201;-63
2023/06/24 03:21:05;;;;;;;3.92;2.72;;;24.00;95.50;;;;;;5073093;28;20182;-62
2023/06/24 03:23:50;;;;;;;3.80;2.33;;;23.90;95.50;;;;;;5087511;28;20262;-63
2023/06/24 03:26:36;;;;;;;2.72;2.42;;;24.00;95.50;;;;;;5091113;28;20174;-62
2023/06/24 03:29:20;;;;;;;3.85;2.60;;;23.90;95.50;;;;;;5091052;28;20300;-62
2023/06/24 03:32:05;;;;;;;3.75;2.67;;;23.90;95.50;;;;;;5090975;28;20177;-62
2023/06/24 03:34:49;;;;;;;2.97;2.78;;;23.90;95.40;;;;;;5090839;28;20174;-62
2023/06/24 03:37:35;;;;;;;2.50;2.30;;;23.90;95.50;;;;;;5091015;28;20240;-63
2023/06/24 03:40:20;;;;;;;2.70;2.60;;;24.00;95.50;;;;;;5090858;28;20166;-62
2023/06/24 03:43:05;;;;;;;3.60;2.63;;;24.00;95.50;;;;;;5090670;28;20177;-63
2023/06/24 03:45:49;;;;;;;3.17;2.90;;;23.90;95.50;;;;;;5090441;28;20178;-62
2023/06/24 03:48:35;;;;;;;5.65;2.75;;;23.90;95.50;;;;;;5090777;28;20247;-63
2023/06/24 03:51:19;;;;;;;3.67;2.38;;;24.00;95.50;;;;;;5090469;28;20196;-62
2023/06/24 03:54:04;;;;;;;2.78;2.58;;;24.00;95.50;;;;;;5090399;28;20216;-62
2023/06/24 03:56:48;;;;;;;3.85;2.78;;;23.90;95.50;;;;;;5090648;28;20257;-62
2023/06/24 03:59:33;;;;;;;2.53;2.33;;;23.90;95.50;;;;;;5090517;28;20252;-62
2023/06/24 04:02:18;;;;;;;3.10;2.80;;;24.00;95.50;;;;;;5062122;28;20169;-62
2023/06/24 04:05:02;;;;;;;2.67;2.55;;;23.90;95.50;;;;;;5077092;28;20193;-62
2023/06/24 04:07:47;;;;;;;3.30;2.53;;;23.90;95.50;;;;;;5090904;28;20162;-62
2023/06/24 04:10:32;;;;;;;2.30;2.20;;;24.00;95.50;;;;;;5090462;28;20185;-62
2023/06/24 04:13:16;;;;;;;2.70;2.50;;;24.00;95.50;;;;;;5090268;28;20182;-63
2023/06/24 04:16:01;;;;;;;2.67;2.47;;;24.00;95.50;;;;;;5061713;28;20174;-62
2023/06/24 04:18:45;;;;;;;2.45;2.30;;;23.90;95.50;;;;;;5076726;28;20204;-62
2023/06/24 04:21:30;;;;;;;2.95;2.65;;;23.90;95.50;;;;;;5061528;28;20170;-62
2023/06/24 04:24:14;;;;;;;2.47;2.28;;;23.90;95.50;;;;;;5061928;28;20176;-62
2023/06/24 04:26:59;;;;;;;3.15;2.85;;;23.90;95.60;;;;;;5061439;28;20169;-63
2023/06/24 04:29:43;;;;;;;2.45;2.28;;;23.90;95.60;;;;;;5061854;28;20185;-62
2023/06/24 04:32:28;;;;;;;2.75;2.50;;;23.90;95.60;;;;;;5061357;28;20174;-62
2023/06/24 04:35:12;;;;;;;4.40;2.45;;;23.90;95.60;;;;;;5076399;28;20162;-62
2023/06/24 04:37:57;;;;;;;2.03;1.92;;;23.90;95.60;;;;;;5055357;28;20230;-62
2023/06/24 04:40:42;;;;;;;2.83;2.40;;;23.90;95.90;;;;;;5055217;28;20171;-62
2023/06/24 04:43:29;;;;;;;3.13;2.70;;;24.00;95.60;;;;;;5055336;28;20170;-62
2023/06/24 04:46:14;;;;;;;3.03;2.83;;;23.90;95.60;;;;;;5055472;28;20217;-62
2023/06/24 04:48:58;;;;;;;2.90;2.60;;;23.90;95.60;;;;;;5055747;28;20178;-62
2023/06/24 04:51:44;;;;;;;2.63;2.42;;;23.90;95.60;;;;;;5056013;28;20178;-62
2023/06/24 04:54:28;;;;;;;2.72;2.28;;;23.90;95.60;;;;;;5055132;28;20189;-62
2023/06/24 04:57:24;;;;;;;2.78;2.42;;;23.90;95.60;;;;;;5054951;28;20178;-62
2023/06/24 05:00:09;;;;;;;2.28;2.10;;;23.90;95.60;;;;;;5055956;28;20195;-62
2023/06/24 05:02:53;;;;;;;2.33;2.15;;;23.90;95.70;;;;;;5054990;28;20221;-62
2023/06/24 05:05:37;;;;;;;4.05;2.90;;;23.90;95.70;;;;;;5054588;28;20214;-62
2023/06/24 05:08:22;;;;;;;2.13;2.03;;;23.90;95.70;;;;;;5055273;28;20203;-62
2023/06/24 05:11:07;;;;;;;3.13;2.80;;;23.90;95.70;;;;;;5054957;28;20198;-62
2023/06/24 05:13:51;;;;;;;3.53;2.45;;;24.00;95.70;;;;;;5054822;28;20190;-62
2023/06/24 05:16:36;;;;;;;3.03;2.83;;;24.00;95.70;;;;;;5055479;28;20175;-62
2023/06/24 05:19:20;;;;;;;3.00;2.80;;;24.00;95.80;;;;;;5054395;28;20210;-62
2023/06/24 05:22:05;;;;;;;2.42;2.30;;;24.00;95.80;;;;;;5054777;28;20178;-62
2023/06/24 05:24:50;;;;;;;2.78;2.50;;;24.00;95.80;;;;;;5054705;28;20214;-63
2023/06/24 05:27:34;;;;;;;2.78;2.53;;;24.00;95.80;;;;;;5054370;28;20206;-63
2023/06/24 05:30:19;;;;;;;4.82;2.45;;;24.00;95.90;;;;;;5054496;28;20185;-62
2023/06/24 05:33:03;;;;;;;2.75;2.30;;;24.00;95.90;;;;;;5048299;28;20242;-63
2023/06/24 05:35:49;;;;;;;2.75;2.55;;;24.00;95.90;;;;;;5034866;28;20182;-62
2023/06/24 05:38:33;;;;;;;2.13;2.03;;;24.00;95.90;;;;;;5060772;28;20323;-63
2023/06/24 05:41:18;;;;;;;2.55;2.38;;;24.00;96.30;;;;;;5059534;28;20170;-63
2023/06/24 05:44:04;;;;;;;2.25;2.05;;;24.00;96.00;;;;;;5074169;28;20198;-62
2023/06/24 05:46:49;;;;;;;2.63;2.42;;;24.00;96.00;;;;;;5074345;28;20209;-62
2023/06/24 05:49:34;;;;;;;3.85;2.47;;;24.00;96.00;;;;;;5074048;28;20190;-62
2023/06/24 05:52:19;;;;;;;3.78;2.42;;;24.10;96.00;;;;;;5073807;28;20170;-62
2023/06/24 05:55:04;;;;;;;7.25;2.25;;;24.00;96.10;;;;;;5074770;28;20169;-62
2023/06/24 05:57:48;;;;;;;2.70;2.50;;;24.00;96.10;;;;;;5073539;28;20201;-62
2023/06/24 06:00:33;;;;;;;2.35;2.05;;;24.10;96.10;;;;;;5073762;28;20177;-62
2023/06/24 06:03:18;;;;;;;2.30;2.17;;;24.00;96.20;;;;;;5074455;28;20166;-62
2023/06/24 06:06:03;;;;;;;2.20;2.00;;;24.00;96.30;;;;;;5073684;28;20210;-62
2023/06/24 06:08:48;;;;;;;2.35;1.83;;;24.10;96.50;;;;;;5073998;28;20177;-63
2023/06/24 06:11:32;;;;;;;2.03;1.92;;;24.10;96.60;;;;;;5068379;28;20200;-62
2023/06/24 06:14:17;;;;;;;2.05;1.95;;;24.10;96.60;;;;;;5063015;28;20224;-63
2023/06/24 06:17:01;;;;;;;2.40;2.30;;;24.10;96.60;;;;;;5065398;28;20175;-63
2023/06/24 06:19:46;;;;;;;2.28;2.10;;;24.20;96.70;;;;;;5066182;28;20197;-62
2023/06/24 06:22:32;;;;;;;2.88;2.20;;;24.30;96.90;;;;;;5070820;28;20205;-62
2023/06/24 06:25:16;;;;;;;4.18;3.13;;;24.30;96.70;;;;;;5058251;28;20198;-62
2023/06/24 06:28:01;;;;;;;3.70;2.53;;;24.30;96.50;;;;;;5100086;28;20424;-63
2023/06/24 06:30:45;;;;;;;2.67;2.42;;;24.20;96.60;;;;;;5073711;28;20224;-63
2023/06/24 06:33:30;;;;;;;2.25;2.15;;;24.20;96.50;;;;;;5074381;28;20220;-63
2023/06/24 06:36:15;;;;;;;2.67;2.47;;;24.20;96.40;;;;;;5073567;28;20169;-63
2023/06/24 06:38:59;;;;;;;2.83;2.55;;;24.20;96.30;;;;;;5072590;28;20245;-63
2023/06/24 06:41:44;;;;;;;2.80;2.60;;;24.20;96.20;;;;;;5073552;28;20201;-63
2023/06/24 06:44:28;;;;;;;2.88;2.60;;;24.20;96.20;;;;;;5064236;28;20283;-63
2023/06/24 06:47:13;;;;;;;3.22;2.63;;;24.10;96.20;;;;;;5058916;28;20173;-62
2023/06/24 06:49:58;;;;;;;2.60;2.40;;;24.20;96.20;;;;;;5060342;28;20228;-61
2023/06/24 06:52:42;;;;;;;2.55;2.35;;;24.30;96.30;;;;;;5059543;28;20192;-61
2023/06/24 06:55:27;;;;;;;2.40;2.30;;;24.30;96.00;;;;;;5058864;28;20193;-61
2023/06/24 06:58:12;;;;;;;5.00;2.50;;;24.40;95.90;;;;;;5087624;28;20197;-61
2023/06/24 07:01:01;;;;;;;3.67;2.30;;;24.40;96.10;;;;;;5062882;28;20177;-61
2023/06/24 07:03:45;;;;;;;2.28;2.08;;;24.50;95.90;;;;;;5090628;28;20198;-62
2023/06/24 07:06:32;;;;;;;2.25;1.85;;;24.50;95.80;;;;;;5076324;28;20170;-62
2023/06/24 07:09:17;;;;;;;1.90;1.80;;;24.60;95.90;;;;;;5087891;28;20219;-62
2023/06/24 07:12:02;;;;;;;2.15;2.05;;;24.70;95.80;;;;;;5077147;28;20190;-62
2023/06/24 07:14:46;;;;;;;3.45;1.83;;;24.80;95.40;;;;;;5076660;28;20254;-62
2023/06/24 07:17:30;;;;;;;2.88;1.80;;;24.80;95.30;;;;;;5090678;28;20198;-62
2023/06/24 07:20:15;;;;;;;2.10;1.92;;;24.90;94.90;;;;;;5090999;28;20178;-62
2023/06/24 07:23:00;;;;;;;2.00;1.80;;;24.90;94.70;;;;;;5075668;28;20192;-59
2023/06/24 07:25:44;;;;;;;1.92;1.83;;;25.00;95.00;;;;;;5062193;28;20194;-61
2023/06/24 07:28:29;;;;;;;2.25;2.00;;;25.00;95.10;;;;;;5077769;28;20174;-62
2023/06/24 07:31:13;;;;;;;2.13;2.00;;;25.10;94.90;;;;;;5091306;28;20197;-61
2023/06/24 07:33:58;;;;;;;2.20;2.10;;;25.20;94.90;;;;;;5078227;28;20208;-62
2023/06/24 07:36:43;;;;;;;2.78;1.75;;;25.20;94.60;;;;;;5091233;28;20185;-62
2023/06/24 07:39:28;;;;;;;1.90;1.77;;;25.30;94.60;;;;;;5077223;28;20259;-62
2023/06/24 07:42:18;;;;;;;1.88;1.77;;;25.30;94.80;;;;;;5090579;28;20224;-61
2023/06/24 07:45:03;;;;;;;2.20;2.00;;;25.30;94.60;;;;;;5091372;28;20178;-61
2023/06/24 07:47:48;;;;;;;1.95;1.77;;;25.40;94.50;;;;;;5062395;28;20185;-61
2023/06/24 07:50:34;;;;;;;1.70;1.60;;;25.40;94.30;;;;;;5062350;28;20185;-60
2023/06/24 07:53:18;;;;;;;3.08;1.67;;;25.50;94.40;;;;;;5090892;28;20201;-60
2023/06/24 07:56:03;;;;;;;1.80;1.70;;;25.50;94.30;;;;;;5076682;28;20196;-60
2023/06/24 07:58:47;;;;;;;2.28;2.10;;;25.50;94.30;;;;;;5076542;28;20276;-60
2023/06/24 08:01:32;;;;;;;2.33;2.13;;;25.60;94.20;;;;;;5062289;28;20221;-60
2023/06/24 08:04:16;;;;;;;1.85;1.73;;;25.60;94.00;;;;;;5061466;28;20198;-60
2023/06/24 09:56:09;;;;;;;1.80;1.38;;;26.60;91.40;;;;;;5093335;27;20570;-69
2023/06/24 09:58:54;;;;;;;1.50;1.40;;;26.90;91.70;;;;;;5086723;28;20259;-62
2023/06/24 10:01:40;;;;;;;1.73;1.58;;;27.40;91.30;;;;;;5075040;28;20276;-64
2023/06/24 10:04:27;;;;;;;1.63;1.52;;;27.70;91.20;;;;;;5075395;28;20544;-61
2023/06/24 10:07:12;;;;;;;2.25;1.42;;;28.10;90.80;;;;;;5085058;28;20173;-47
2023/06/24 10:09:57;;;;;;;1.50;1.48;;;28.30;89.10;;;;;;5087266;28;20176;-73
2023/06/24 10:12:43;;;;;;;1.77;1.55;;;28.50;90.00;;;;;;5085755;28;20220;-69
2023/06/24 10:15:27;;;;;;;1.50;1.48;;;28.60;88.40;;;;;;5087177;28;20216;-69
2023/06/24 10:18:30;;;;;;;2.65;1.70;;;29.00;89.80;;;;;;5085933;28;20267;-69
2023/06/24 10:21:16;;;;;;;2.10;1.83;;;29.00;90.40;;;;;;5087498;28;20204;-74
2023/06/24 10:24:03;;;;;;;1.30;1.20;;;29.10;88.40;;;;;;5088856;28;20211;-71
2023/06/24 10:26:48;;;;;;;1.55;1.45;;;29.00;90.20;;;;;;5088592;28;20180;-77
2023/06/24 10:29:37;;;;;;;1.63;1.52;;;29.20;89.50;;;;;;5088757;28;20171;-75
2023/06/24 10:32:23;;;;;;;1.77;1.60;;;29.40;88.50;;;;;;5089065;28;20228;-78
2023/06/24 10:35:20;;;;;;;1.38;1.38;;;29.60;86.60;;;;;;5100259;28;20212;-70
2023/06/24 10:38:10;;;;;;;1.88;1.77;;;29.50;86.90;;;;;;5109381;28;20214;-70
2023/06/24 10:40:54;;;;;;;4.93;1.75;;;29.80;89.60;;;;;;5074395;28;20200;-60
2023/06/24 10:43:39;;;;;;;1.73;1.63;;;29.90;87.40;;;;;;5081753;27;139198;-60
2023/06/24 10:46:27;;;;;;;1.70;1.70;;;29.70;87.70;;;;;;5081158;28;20186;-58
2023/06/24 10:49:12;;;;;;;1.77;1.67;;;29.50;87.90;;;;;;5081528;28;20276;-60
2023/06/24 10:51:56;;;;;;;1.73;1.63;;;28.70;89.10;;;;;;5067220;28;20170;-60
2023/06/24 10:54:41;;;;;;;2.75;2.00;;;28.90;90.00;;;;;;5066668;28;20255;-60
2023/06/24 10:57:27;;;;;;;2.50;2.10;;;29.20;90.10;;;;;;5067830;28;20202;-60
2023/06/24 11:00:13;;;;;;;1.90;1.80;;;29.50;88.50;;;;;;5068029;28;20221;-59
2023/06/24 11:03:08;;;;;;;1.77;1.67;;;29.70;88.50;;;;;;5056726;28;20216;-59
2023/06/24 11:05:53;;;;;;;2.45;1.90;;;29.70;88.20;;;;;;5084034;28;20173;-54
2023/06/24 11:08:44;;;;;;;2.78;1.88;;;29.90;86.90;;;;;;5074772;28;20170;-52
2023/06/24 11:11:29;;;;;;;4.95;2.25;;;30.10;89.10;;;;;;5054215;28;20217;-55
2023/06/24 11:14:16;;;;;;;2.22;2.03;;;30.20;86.70;;;;;;5054409;28;20214;-53
2023/06/24 11:17:04;;;;;;;1.92;1.83;;;29.30;87.60;;;;;;5053136;28;20187;-58
2023/06/24 11:19:49;;;;;;;1.95;1.85;;;28.20;89.90;;;;;;5054568;28;20178;-62
2023/06/24 11:22:33;;;;;;;2.00;1.90;;;28.70;89.80;;;;;;5054723;28;20233;-60
2023/06/24 11:25:19;;;;;;;1.90;1.80;;;29.20;87.70;;;;;;5053307;28;20182;-58
2023/06/24 11:28:04;;;;;;;2.10;1.98;;;29.20;89.50;;;;;;5053455;28;20193;-59
2023/06/24 11:30:48;;;;;;;1.85;1.75;;;29.90;87.90;;;;;;5054332;28;20206;-59
2023/06/24 11:33:33;;;;;;;2.22;2.03;;;30.70;88.70;;;;;;5053174;28;20187;-62
2023/06/24 11:36:21;;;;;;;2.05;1.90;;;31.50;86.30;;;;;;5053767;28;20232;-58
2023/06/24 11:39:06;;;;;;;2.05;1.95;;;31.80;84.80;;;;;;5053983;28;20202;-59
2023/06/24 11:41:52;;;;;;;2.08;1.60;;;32.20;85.10;;;;;;5072937;28;20272;-58
2023/06/24 11:44:45;;;;;;;2.10;1.88;;;32.50;84.50;;;;;;5072800;28;20229;-61
2023/06/24 11:47:34;;;;;;;1.92;1.83;;;32.60;84.00;;;;;;5073782;28;20181;-55
2023/06/24 11:50:26;;;;;;;1.98;1.88;;;32.30;82.40;;;;;;5072540;28;20236;-59
2023/06/24 11:53:11;;;;;;;2.97;2.72;;;31.90;84.00;;;;;;5072787;28;20174;-58
2023/06/24 11:55:56;;;;;;;1.70;1.70;;;31.80;83.70;;;;;;5072682;28;20283;-60
2023/06/24 11:58:43;;;;;;;1.98;1.75;;;31.40;81.30;;;;;;5073565;28;20213;-57
2023/06/24 12:01:36;;;;;;;2.00;1.88;;;31.00;83.60;;;;;;5072554;28;20209;-55
2023/06/24 12:04:21;;;;;;;2.25;2.15;;;31.40;84.70;;;;;;5072819;28;20178;-59
2023/06/24 12:07:06;;;;;;;1.98;1.88;;;31.50;84.10;;;;;;5072661;28;20217;-55
2023/06/24 12:09:51;;;;;;;1.90;1.80;;;32.00;84.10;;;;;;5073155;28;20229;-54
2023/06/24 12:12:35;;;;;;;2.40;2.20;;;32.60;80.80;;;;;;5073215;28;20170;-59
2023/06/24 12:15:20;;;;;;;2.65;2.40;;;32.90;79.80;;;;;;5073170;28;20210;-58
2023/06/24 12:18:05;;;;;;;2.15;2.05;;;31.90;79.00;;;;;;5071266;28;20174;-59
2023/06/24 12:20:49;;;;;;;2.22;2.13;;;30.20;83.90;;;;;;5072058;28;20211;-59
2023/06/24 12:23:34;;;;;;;2.20;2.10;;;30.70;84.40;;;;;;5072251;28;20212;-58
2023/06/24 12:26:18;;;;;;;1.88;1.77;;;31.50;83.60;;;;;;5071683;28;20189;-56
2023/06/24 12:29:03;;;;;;;2.20;2.08;;;32.50;81.90;;;;;;5072733;28;20169;-53
2023/06/24 12:31:48;;;;;;;1.77;1.67;;;33.30;80.90;;;;;;5071849;28;20193;-57
2023/06/24 12:34:32;;;;;;;2.17;2.08;;;34.00;80.00;;;;;;5072270;28;20287;-58
2023/06/24 12:37:17;;;;;;;2.13;2.03;;;34.60;78.00;;;;;;5073406;28;20170;-57
2023/06/24 12:40:03;;;;;;;1.73;1.73;;;34.60;77.70;;;;;;5066136;28;20252;-58
2023/06/24 12:42:47;;;;;;;1.85;1.75;;;34.30;76.50;;;;;;5052511;28;20178;-58
2023/06/24 12:45:32;;;;;;;1.98;1.88;;;34.00;77.30;;;;;;5053213;28;20171;-57
2023/06/24 12:48:16;;;;;;;1.80;1.80;;;34.20;76.80;;;;;;5053237;28;20174;-56
2023/06/24 12:51:01;;;;;;;1.98;1.88;;;34.10;76.80;;;;;;5052982;28;20182;-57
2023/06/24 12:53:46;;;;;;;3.25;2.08;;;34.60;75.40;;;;;;5065210;28;20228;-53
2023/06/24 12:56:30;;;;;;;1.77;1.70;;;35.10;75.20;;;;;;5051450;28;20253;-57
2023/06/24 12:59:15;;;;;;;2.10;1.92;;;35.20;73.70;;;;;;5052047;28;20237;-58
2023/06/24 13:02:00;;;;;;;2.00;1.90;;;34.10;73.90;;;;;;5051454;28;20248;-58
2023/06/24 13:04:45;;;;;;;2.10;2.00;;;32.40;77.90;;;;;;5051693;28;20198;-51
2023/06/24 13:07:29;;;;;;;2.50;2.30;;;31.50;78.80;;;;;;5051442;28;20240;-58
2023/06/24 13:10:14;;;;;;;1.80;1.70;;;31.60;80.50;;;;;;5056152;28;20198;-58
2023/06/24 13:12:58;;;;;;;1.60;1.50;;;32.40;80.60;;;;;;5050770;28;20170;-58
2023/06/24 13:15:43;;;;;;;1.92;1.83;;;32.30;78.90;;;;;;5051997;28;20233;-59
2023/06/24 13:18:27;;;;;;;1.98;1.88;;;32.70;79.30;;;;;;5052014;28;20213;-58
2023/06/24 13:21:12;;;;;;;1.80;1.70;;;32.50;77.70;;;;;;5059210;28;20182;-60
2023/06/24 13:23:56;;;;;;;1.95;1.85;;;32.10;78.20;;;;;;5072465;28;20251;-60
2023/06/24 13:26:41;;;;;;;2.33;2.17;;;33.30;78.20;;;;;;5070960;28;20174;-56
2023/06/24 13:29:27;;;;;;;2.35;2.25;;;32.90;76.50;;;;;;5071939;28;20227;-55
2023/06/24 13:32:11;;;;;;;1.95;1.85;;;32.80;77.90;;;;;;5071771;28;20272;-59
2023/06/24 13:34:56;;;;;;;2.35;2.20;;;32.90;78.40;;;;;;5071598;28;20213;-58
2023/06/24 13:37:41;;;;;;;2.88;2.65;;;32.50;78.70;;;;;;5085111;28;20311;-58
2023/06/24 13:40:25;;;;;;;2.42;2.33;;;31.80;81.00;;;;;;5071386;28;20197;-59
2023/06/24 13:43:10;;;;;;;2.90;2.30;;;31.50;80.10;;;;;;5071705;28;20225;-65
2023/06/24 13:45:54;;;;;;;2.88;2.67;;;31.10;81.30;;;;;;5071263;28;20300;-71
2023/06/24 13:48:39;;;;;;;1.85;1.75;;;30.70;80.90;;;;;;5070145;28;20193;-62
2023/06/24 13:51:24;;;;;;;8.10;3.72;;;30.70;83.70;;;;;;5071096;28;20266;-68
2023/06/24 13:54:09;;;;;;;4.88;3.80;;;30.90;82.90;;;;;;5069618;28;20315;-65
2023/06/24 13:56:53;;;;;;;7.07;2.30;;;30.00;81.90;;;;;;5070024;28;20172;-63
2023/06/24 13:59:38;;;;;;;2.38;2.05;;;30.00;85.10;;;;;;5069557;28;20236;-65
2023/06/24 14:02:22;;;;;;;3.33;2.42;;;30.40;85.10;;;;;;5069859;28;20181;-64
2023/06/24 14:05:07;;;;;;;2.40;2.30;;;30.80;83.10;;;;;;5069543;28;20246;-65
2023/06/24 14:07:52;;;;;;;2.38;1.85;;;31.20;82.00;;;;;;5071211;28;20193;-62
2023/06/24 14:10:36;;;;;;;2.90;1.80;;;31.40;81.50;;;;;;5070944;28;20248;-64
2023/06/24 14:13:21;;;;;;;2.78;2.58;;;31.40;81.20;;;;;;5071157;28;20173;-65
2023/06/24 14:16:05;;;;;;;2.20;2.10;;;30.30;85.10;;;;;;5069817;28;20236;-64
2023/06/24 14:18:50;;;;;;;2.42;2.08;;;30.10;85.40;;;;;;5070016;28;20217;-63
2023/06/24 14:21:37;;;;;;;1.92;1.88;;;30.50;83.60;;;;;;5070241;28;20169;-64
2023/06/24 14:24:21;;;;;;;2.33;2.22;;;30.90;83.60;;;;;;5070240;28;20170;-60
2023/06/24 14:27:07;;;;;;;3.75;2.03;;;31.00;83.60;;;;;;5070838;28;20174;-65
2023/06/24 14:29:51;;;;;;;2.00;1.90;;;31.00;83.60;;;;;;5070337;28;20166;-63
2023/06/24 14:32:37;;;;;;;2.35;2.25;;;30.90;83.70;;;;;;5071557;28;20174;-55
2023/06/24 14:35:22;;;;;;;2.42;2.33;;;30.10;81.60;;;;;;5070418;28;20247;-62
2023/06/24 14:38:06;;;;;;;2.10;2.00;;;29.70;83.80;;;;;;5071405;28;20212;-64
2023/06/24 14:40:51;;;;;;;2.17;2.03;;;29.70;85.60;;;;;;5064291;28;20202;-65
2023/06/24 14:43:35;;;;;;;2.95;2.30;;;29.80;86.00;;;;;;5053467;28;20173;-65
2023/06/24 14:46:20;;;;;;;4.05;2.13;;;30.10;85.30;;;;;;5068292;28;20171;-65
2023/06/24 14:49:04;;;;;;;2.10;2.00;;;30.30;84.30;;;;;;5054331;28;20202;-64
2023/06/24 14:51:49;;;;;;;2.00;1.90;;;30.50;84.10;;;;;;5054809;28;20229;-63
2023/06/24 14:54:34;;;;;;;3.35;2.45;;;30.30;83.90;;;;;;5053329;28;20234;-62
2023/06/24 14:57:18;;;;;;;2.15;1.90;;;29.50;84.10;;;;;;5053644;28;20170;-61
2023/06/24 15:00:03;;;;;;;1.83;1.75;;;29.20;86.40;;;;;;5054930;28;20168;-61
2023/06/24 15:02:48;;;;;;;2.28;2.15;;;29.10;86.30;;;;;;5053749;28;20226;-60
2023/06/24 15:05:34;;;;;;;2.63;1.90;;;28.80;85.20;;;;;;5053584;28;20206;-60
2023/06/24 15:08:18;;;;;;;1.92;1.83;;;28.80;85.80;;;;;;5067832;28;20185;-59
2023/06/24 15:11:03;;;;;;;3.05;1.50;;;28.70;85.60;;;;;;5084630;28;20240;-58
2023/06/24 15:13:47;;;;;;;1.70;1.50;;;28.60;86.50;;;;;;5073222;28;20165;-59
2023/06/24 15:16:32;;;;;;;2.33;2.20;;;28.70;87.40;;;;;;5073681;28;20169;-60
2023/06/24 15:19:16;;;;;;;2.33;2.22;;;28.90;89.10;;;;;;5073612;28;20178;-59
2023/06/24 15:22:01;;;;;;;1.90;1.80;;;28.80;89.60;;;;;;5073582;28;20269;-60
2023/06/24 15:24:45;;;;;;;1.95;1.85;;;28.70;89.10;;;;;;5073665;28;20178;-59
2023/06/24 15:27:30;;;;;;;1.88;1.77;;;28.90;89.20;;;;;;5074304;28;20173;-62
2023/06/24 15:30:16;;;;;;;1.73;1.73;;;28.70;86.70;;;;;;5073168;28;20169;-59
2023/06/24 15:33:00;;;;;;;2.25;2.15;;;28.50;88.00;;;;;;5072700;28;20178;-60
2023/06/24 15:35:44;;;;;;;3.00;2.20;;;28.30;88.50;;;;;;5072976;28;20216;-59
2023/06/24 15:38:29;;;;;;;2.63;2.17;;;28.20;88.90;;;;;;5072402;28;20166;-61
2023/06/24 15:41:14;;;;;;;2.10;2.00;;;28.30;90.10;;;;;;5074108;28;20194;-60
2023/06/24 15:43:59;;;;;;;1.88;1.77;;;28.50;90.40;;;;;;5074411;28;20169;-59
2023/06/24 15:46:46;;;;;;;1.85;1.83;;;28.40;90.30;;;;;;5072792;28;20174;-59
2023/06/24 15:49:31;;;;;;;2.03;1.88;;;28.10;90.10;;;;;;5074258;28;20217;-61
2023/06/24 15:52:16;;;;;;;2.10;2.00;;;27.90;90.50;;;;;;5072362;28;20226;-61
2023/06/24 15:55:00;;;;;;;1.80;1.70;;;27.90;90.50;;;;;;5072032;28;20225;-60
2023/06/24 15:57:44;;;;;;;2.85;2.60;;;27.80;91.10;;;;;;5072972;28;20174;-60
2023/06/24 16:00:29;;;;;;;2.28;2.10;;;27.80;90.70;;;;;;5073104;28;20261;-57
2023/06/24 16:03:14;;;;;;;3.72;2.13;;;27.50;90.60;;;;;;5072782;28;20228;-58
2023/06/24 16:05:58;;;;;;;2.45;2.25;;;27.50;91.10;;;;;;5072461;28;20198;-58
2023/06/24 16:08:43;;;;;;;1.95;1.85;;;27.50;90.80;;;;;;5073567;28;20165;-58
2023/06/24 16:11:28;;;;;;;1.90;1.80;;;27.50;91.20;;;;;;5053799;28;20178;-52
2023/06/24 16:14:14;;;;;;;3.38;2.05;;;27.50;91.80;;;;;;5053514;28;20252;-58